createdAt,value
2019-02-24T00:02:08.519Z,100910.70
2019-02-24T00:04:37.605Z,100910.36
2019-02-24T00:07:06.702Z,100912.63
2019-02-24T00:09:35.797Z,100903.69
2019-02-24T00:12:04.949Z,100909.13
2019-02-24T00:14:34.111Z,100903.42
2019-02-24T00:17:03.264Z,100896.67
2019-02-24T00:19:32.185Z,100899.48
2019-02-24T00:22:01.293Z,100908.39
2019-02-24T00:24:30.463Z,100908.49
2019-02-24T00:26:59.545Z,100910.78
2019-02-24T00:29:28.628Z,100920.83
2019-02-24T00:31:57.742Z,100914.08
2019-02-24T00:34:26.844Z,100912.39
2019-02-24T00:36:55.957Z,100910.67
2019-02-24T00:39:25.034Z,100911.72
2019-02-24T00:41:54.165Z,100904.25
2019-02-24T00:44:23.175Z,100909.95
2019-02-24T00:46:52.290Z,100907.88
2019-02-24T00:49:21.285Z,100910.50
2019-02-24T00:51:50.532Z,100906.92
2019-02-24T00:54:19.624Z,100902.53
2019-02-24T00:56:48.697Z,100895.92
2019-02-24T00:59:17.869Z,100896.79
2019-02-24T01:01:47.005Z,100893.80
2019-02-24T01:04:16.479Z,100897.73
2019-02-24T01:06:45.670Z,100899.08
2019-02-24T01:09:14.773Z,100901.31
2019-02-24T01:11:43.895Z,100899.22
2019-02-24T01:14:12.996Z,100902.66
2019-02-24T01:16:42.081Z,100905.66
2019-02-24T01:19:11.184Z,100901.63
2019-02-24T01:21:40.225Z,100904.84
2019-02-24T01:24:09.248Z,100901.38
2019-02-24T01:26:38.329Z,100895.84
2019-02-24T01:29:07.348Z,100892.02
2019-02-24T01:31:36.429Z,100890.17
2019-02-24T01:34:05.535Z,100888.41
2019-02-24T01:36:34.590Z,100886.19
2019-02-24T01:39:04.148Z,100875.02
2019-02-24T01:41:33.418Z,100872.41
2019-02-24T01:44:02.642Z,100871.84
2019-02-24T01:46:31.630Z,100861.47
2019-02-24T01:49:00.731Z,100866.61
2019-02-24T01:51:29.903Z,100862.64
2019-02-24T01:53:59.012Z,100864.88
2019-02-24T01:56:29.065Z,100869.97
2019-02-24T01:58:58.078Z,100872.69
2019-02-24T02:01:27.215Z,100872.83
2019-02-24T02:03:56.186Z,100872.83
2019-02-24T02:06:25.288Z,100871.97
2019-02-24T02:08:54.375Z,100873.80
2019-02-24T02:11:23.508Z,100867.61
2019-02-24T02:13:52.595Z,100865.42
2019-02-24T02:16:21.663Z,100857.95
2019-02-24T02:18:50.753Z,100860.63
2019-02-24T02:21:19.815Z,100860.26
2019-02-24T02:23:48.930Z,100852.83
2019-02-24T02:26:17.940Z,100855.95
2019-02-24T02:28:47.017Z,100846.20
2019-02-24T02:31:16.180Z,100849.39
2019-02-24T02:33:45.317Z,100839.12
2019-02-24T02:36:14.434Z,100837.71
2019-02-24T02:38:43.567Z,100832.67
2019-02-24T02:41:12.854Z,100832.23
2019-02-24T02:43:42.050Z,100821.37
2019-02-24T02:46:11.150Z,100826.30
2019-02-24T02:48:40.633Z,100823.33
2019-02-24T02:51:10.197Z,100820.36
2019-02-24T02:53:39.355Z,100822.34
2019-02-24T02:56:08.393Z,100821.11
2019-02-24T02:58:37.546Z,100824.88
2019-02-24T03:01:06.659Z,100821.56
2019-02-24T03:03:35.797Z,100818.93
2019-02-24T03:06:16.305Z,100816.30
2019-02-24T03:08:46.423Z,100813.66
2019-02-24T03:11:16.206Z,100815.45
2019-02-24T03:13:45.349Z,100809.30
2019-02-24T03:16:16.162Z,100813.80
2019-02-24T03:18:45.268Z,100808.08
2019-02-24T03:21:14.377Z,100810.14
2019-02-24T03:23:43.522Z,100805.94
2019-02-24T03:26:12.625Z,100804.23
2019-02-24T03:28:41.755Z,100802.87
2019-02-24T03:31:10.868Z,100798.46
2019-02-24T03:33:40.042Z,100797.62
2019-02-24T03:36:09.199Z,100793.26
2019-02-24T03:38:38.416Z,100792.24
2019-02-24T03:41:07.523Z,100799.76
2019-02-24T03:43:36.680Z,100798.03
2019-02-24T03:46:05.794Z,100805.34
2019-02-24T03:48:34.924Z,100808.82
2019-02-24T03:51:04.057Z,100810.97
2019-02-24T03:53:33.387Z,100810.55
2019-02-24T03:56:02.497Z,100821.47
2019-02-24T03:58:31.662Z,100826.41
2019-02-24T04:01:00.771Z,100832.86
2019-02-24T04:03:29.992Z,100835.59
2019-02-24T04:05:59.149Z,100839.64
2019-02-24T04:08:28.275Z,100834.39
2019-02-24T04:10:57.522Z,100841.45
2019-02-24T04:13:26.620Z,100835.80
2019-02-24T04:15:55.780Z,100833.53
2019-02-24T04:18:24.908Z,100829.95
2019-02-24T04:20:54.045Z,100823.84
2019-02-24T04:23:23.391Z,100823.42
2019-02-24T04:25:53.689Z,100825.64
2019-02-24T04:28:23.326Z,100827.78
2019-02-24T04:30:55.934Z,100829.59
2019-02-24T04:33:25.062Z,100828.25
2019-02-24T04:35:54.219Z,100832.14
2019-02-24T04:38:23.576Z,100830.03
2019-02-24T04:40:52.814Z,100837.89
2019-02-24T04:43:21.981Z,100833.59
2019-02-24T04:45:51.130Z,100837.66
2019-02-24T04:48:20.235Z,100836.73
2019-02-24T04:50:49.372Z,100833.09
2019-02-24T04:53:18.598Z,100828.20
2019-02-24T04:55:47.748Z,100828.25
2019-02-24T04:58:16.868Z,100828.30
2019-02-24T05:00:46.061Z,100830.97
2019-02-24T05:03:15.124Z,100828.05
2019-02-24T05:05:44.266Z,100832.38
2019-02-24T05:08:13.372Z,100827.00
2019-02-24T05:10:42.524Z,100830.52
2019-02-24T05:13:11.643Z,100822.73
2019-02-24T05:15:40.801Z,100822.78
2019-02-24T05:18:09.895Z,100821.44
2019-02-24T05:20:39.036Z,100820.55
2019-02-24T05:23:08.186Z,100819.15
2019-02-24T05:25:37.328Z,100814.88
2019-02-24T05:28:06.510Z,100813.50
2019-02-24T05:30:35.663Z,100814.88
2019-02-24T05:33:04.873Z,100807.89
2019-02-24T05:35:33.997Z,100808.31
2019-02-24T05:38:03.125Z,100809.63
2019-02-24T05:40:32.163Z,100807.77
2019-02-24T05:43:01.310Z,100806.02
2019-02-24T05:45:30.565Z,100810.41
2019-02-24T05:47:59.711Z,100803.00
2019-02-24T05:50:28.858Z,100799.99
2019-02-24T05:52:57.968Z,100796.11
2019-02-24T05:55:27.165Z,100793.52
2019-02-24T05:57:56.259Z,100806.37
2019-02-24T06:00:25.405Z,100802.88
2019-02-24T06:02:54.679Z,100807.61
2019-02-24T06:05:23.847Z,100801.92
2019-02-24T06:07:52.985Z,100804.88
2019-02-24T06:10:22.219Z,100806.58
2019-02-24T06:12:51.395Z,100812.33
2019-02-24T06:15:20.594Z,100815.34
2019-02-24T06:17:49.734Z,100820.58
2019-02-24T06:20:19.384Z,100826.31
2019-02-24T06:22:49.156Z,100822.84
2019-02-24T06:25:18.561Z,100820.30
2019-02-24T06:27:47.627Z,100822.38
2019-02-24T06:30:16.827Z,100816.70
2019-02-24T06:32:46.022Z,100817.07
2019-02-24T06:35:15.196Z,100818.81
2019-02-24T06:37:44.404Z,100824.03
2019-02-24T06:40:13.624Z,100831.84
2019-02-24T06:42:42.839Z,100839.70
2019-02-24T06:45:12.292Z,100844.02
2019-02-24T06:47:41.599Z,100849.23
2019-02-24T06:50:11.857Z,100860.66
2019-02-24T06:52:41.016Z,100863.66
2019-02-24T06:55:11.434Z,100875.86
2019-02-24T06:57:40.815Z,100865.27
2019-02-24T07:00:14.214Z,100856.53
2019-02-24T07:02:42.450Z,100850.89
2019-02-24T07:05:11.647Z,100845.19
2019-02-24T07:07:40.775Z,100845.19
2019-02-24T07:10:10.031Z,100852.49
2019-02-24T07:12:39.257Z,100852.86
2019-02-24T07:15:09.380Z,100844.17
2019-02-24T07:17:39.518Z,100847.69
2019-02-24T07:20:09.111Z,100844.48
2019-02-24T07:22:38.541Z,100844.45
2019-02-24T07:25:08.301Z,100849.19
2019-02-24T07:27:37.837Z,100848.22
2019-02-24T07:30:08.178Z,100839.52
2019-02-24T07:32:37.426Z,100841.63
2019-02-24T07:35:06.746Z,100844.98
2019-02-24T07:37:36.023Z,100852.20
2019-02-24T07:40:06.033Z,100850.28
2019-02-24T07:42:35.292Z,100854.77
2019-02-24T07:45:04.571Z,100859.05
2019-02-24T07:47:33.894Z,100858.16
2019-02-24T07:50:03.032Z,100864.86
2019-02-24T07:52:32.328Z,100866.12
2019-02-24T07:55:01.733Z,100865.48
2019-02-24T07:57:30.934Z,100870.53
2019-02-24T08:00:00.057Z,100868.20
2019-02-24T08:02:29.417Z,100871.06
2019-02-24T08:04:58.903Z,100869.21
2019-02-24T08:07:28.064Z,100861.23
2019-02-24T08:09:57.197Z,100859.77
2019-02-24T08:12:26.471Z,100849.42
2019-02-24T08:14:55.577Z,100858.84
2019-02-24T08:17:26.474Z,100855.51
2019-02-24T08:19:55.583Z,100852.22
2019-02-24T08:22:25.103Z,100848.05
2019-02-24T08:24:54.208Z,100853.09
2019-02-24T08:27:23.336Z,100855.05
2019-02-24T08:29:52.458Z,100846.41
2019-02-24T08:32:21.787Z,100847.22
2019-02-24T08:34:52.912Z,100852.38
2019-02-24T08:37:21.746Z,100853.19
2019-02-24T08:39:50.886Z,100850.32
2019-02-24T08:42:20.175Z,100842.42
2019-02-24T08:44:49.274Z,100832.92
2019-02-24T08:47:18.378Z,100836.60
2019-02-24T08:49:48.193Z,100842.23
2019-02-24T08:52:17.292Z,100838.95
2019-02-24T08:54:46.348Z,100841.00
2019-02-24T08:57:15.555Z,100843.27
2019-02-24T08:59:44.744Z,100839.27
2019-02-24T09:02:33.866Z,100844.70
2019-02-24T09:04:52.530Z,100841.02
2019-02-24T09:07:22.076Z,100840.57
2019-02-24T09:09:51.207Z,100835.76
2019-02-24T09:12:20.411Z,100833.34
2019-02-24T09:14:49.496Z,100834.13
2019-02-24T09:17:18.611Z,100841.49
2019-02-24T09:19:47.771Z,100843.22
2019-02-24T09:22:16.892Z,100834.61
2019-02-24T09:24:46.190Z,100836.80
2019-02-24T09:27:15.394Z,100843.03
2019-02-24T09:29:44.635Z,100845.53
2019-02-24T09:32:13.889Z,100840.52
2019-02-24T09:34:43.115Z,100843.31
2019-02-24T09:37:12.217Z,100844.83
2019-02-24T09:39:41.297Z,100843.93
2019-02-24T09:42:10.408Z,100834.97
2019-02-24T09:44:39.550Z,100840.31
2019-02-24T09:47:08.839Z,100841.05
2019-02-24T09:49:37.997Z,100844.25
2019-02-24T09:52:07.203Z,100842.19
2019-02-24T09:54:36.349Z,100833.13
2019-02-24T09:57:05.530Z,100829.16
2019-02-24T09:59:34.697Z,100819.63
2019-02-24T10:02:03.891Z,100822.50
2019-02-24T10:04:33.143Z,100822.40
2019-02-24T10:07:02.316Z,100823.37
2019-02-24T10:09:34.961Z,100818.70
2019-02-24T10:12:09.745Z,100823.34
2019-02-24T10:14:42.130Z,100837.45
2019-02-24T10:17:28.541Z,100840.87
2019-02-24T10:20:02.928Z,100842.91
2019-02-24T10:22:33.483Z,100846.03
2019-02-24T10:25:02.518Z,100849.16
2019-02-24T10:27:31.736Z,100847.72
2019-02-24T10:30:01.075Z,100844.53
2019-02-24T10:32:30.638Z,100845.91
2019-02-24T10:34:59.767Z,100845.63
2019-02-24T10:37:36.278Z,100844.86
2019-02-24T10:40:07.256Z,100845.00
2019-02-24T10:42:42.304Z,100841.45
2019-02-24T10:45:12.451Z,100840.95
2019-02-24T10:47:44.007Z,100838.74
2019-02-24T10:50:15.970Z,100841.86
2019-02-24T10:52:45.568Z,100833.22
2019-02-24T10:55:15.014Z,100835.01
2019-02-24T10:57:48.728Z,100833.08
2019-02-24T11:00:20.130Z,100835.08
2019-02-24T11:02:51.502Z,100832.67
2019-02-24T11:05:20.715Z,100829.81
2019-02-24T11:07:49.796Z,100826.23
2019-02-24T11:10:19.282Z,100825.91
2019-02-24T11:12:48.373Z,100827.09
2019-02-24T11:15:19.836Z,100825.86
2019-02-24T11:17:49.049Z,100827.37
2019-02-24T11:20:18.208Z,100822.75
2019-02-24T11:22:49.687Z,100813.28
2019-02-24T11:25:18.756Z,100814.94
2019-02-24T11:27:48.026Z,100822.34
2019-02-24T11:30:17.328Z,100823.06
2019-02-24T11:32:48.944Z,100825.31
2019-02-24T11:35:27.008Z,100820.62
2019-02-24T11:37:57.416Z,100824.89
2019-02-24T11:40:29.873Z,100824.89
2019-02-24T11:43:01.219Z,100816.48
2019-02-24T11:45:30.334Z,100809.83
2019-02-24T11:47:59.550Z,100816.72
2019-02-24T11:50:31.517Z,100824.30
2019-02-24T11:53:00.677Z,100825.63
2019-02-24T11:55:34.300Z,100817.41
2019-02-24T11:58:03.138Z,100814.36
2019-02-24T12:00:37.647Z,100804.89
2019-02-24T12:03:12.444Z,100796.76
2019-02-24T12:05:46.474Z,100796.76
2019-02-24T12:08:19.498Z,100799.41
2019-02-24T12:10:57.675Z,100789.00
2019-02-24T12:13:28.378Z,100793.31
2019-02-24T12:16:04.331Z,100803.17
2019-02-24T12:18:38.319Z,100811.70
2019-02-24T12:21:11.000Z,100805.47
2019-02-24T12:23:48.099Z,100807.89
2019-02-24T12:26:19.848Z,100810.16
2019-02-24T12:28:55.050Z,100810.16
2019-02-24T12:31:58.023Z,100811.27
2019-02-24T12:34:30.723Z,100811.59
2019-02-24T12:37:07.360Z,100808.81
2019-02-24T12:39:39.660Z,100809.83
2019-02-24T12:42:22.238Z,100808.88
2019-02-24T12:45:03.315Z,100807.30
2019-02-24T12:51:26.639Z,100805.27
2019-02-24T12:54:06.507Z,100805.27
2019-02-24T12:56:46.726Z,100808.38
2019-02-24T12:59:19.839Z,100802.03
2019-02-24T13:01:49.910Z,100802.03
2019-02-24T13:04:28.908Z,100795.03
2019-02-24T13:07:04.389Z,100793.44
2019-02-24T13:09:37.004Z,100784.23
2019-02-24T13:12:15.459Z,100784.44
2019-02-24T13:14:47.683Z,100784.44
2019-02-24T13:17:23.452Z,100788.57
2019-02-24T13:19:56.663Z,100785.98
2019-02-24T13:22:35.835Z,100778.39
2019-02-24T13:25:06.480Z,100785.11
2019-02-24T13:27:35.587Z,100793.13
2019-02-24T13:30:11.355Z,100793.13
2019-02-24T13:32:40.599Z,100781.62
2019-02-24T13:35:09.779Z,100767.72
2019-02-24T13:37:38.867Z,100780.27
2019-02-24T13:40:08.601Z,100780.27
2019-02-24T13:42:37.620Z,100779.55
2019-02-24T13:45:09.141Z,100785.63
2019-02-24T13:47:38.242Z,100779.55
2019-02-24T13:50:07.333Z,100781.23
2019-02-24T13:52:36.551Z,100771.31
2019-02-24T13:55:07.590Z,100771.31
2019-02-24T13:57:36.658Z,100776.14
2019-02-24T14:00:06.998Z,100773.96
2019-02-24T14:02:37.181Z,100782.63
2019-02-24T14:05:06.939Z,100781.99
2019-02-24T14:07:37.866Z,100781.99
2019-02-24T14:10:08.748Z,100785.39
2019-02-24T14:12:38.096Z,100778.16
2019-02-24T14:15:07.607Z,100774.55
2019-02-24T14:17:36.610Z,100783.78
2019-02-24T14:20:06.208Z,100773.16
2019-02-24T14:22:36.628Z,100779.84
2019-02-24T14:25:06.386Z,100779.07
2019-02-24T14:27:36.072Z,100777.30
2019-02-24T14:30:07.736Z,100778.88
2019-02-24T14:32:37.911Z,100784.80
2019-02-24T14:35:15.216Z,100781.18
2019-02-24T14:37:47.650Z,100780.88
2019-02-24T14:40:16.709Z,100781.16
2019-02-24T14:42:45.907Z,100779.84
2019-02-24T14:45:15.973Z,100770.50
2019-02-24T14:47:47.297Z,100772.41
2019-02-24T14:50:17.439Z,100775.84
2019-02-24T14:52:50.238Z,100776.21
2019-02-24T14:55:21.526Z,100776.78
2019-02-24T14:57:50.785Z,100772.41
2019-02-24T15:00:21.172Z,100770.88
2019-02-24T15:02:58.151Z,100776.12
2019-02-24T15:05:28.393Z,100775.31
2019-02-24T15:07:58.145Z,100766.05
2019-02-24T15:10:29.294Z,100769.88
2019-02-24T15:12:58.282Z,100769.48
2019-02-24T15:15:33.093Z,100761.18
2019-02-24T15:17:58.650Z,100758.56
2019-02-24T15:20:27.795Z,100753.08
2019-02-24T15:22:56.911Z,100756.52
2019-02-24T15:25:26.023Z,100752.65
2019-02-24T15:27:55.361Z,100745.48
2019-02-24T15:30:29.759Z,100750.14
2019-02-24T15:33:09.072Z,100754.84
2019-02-24T15:35:39.846Z,100757.44
2019-02-24T15:38:13.789Z,100751.77
2019-02-24T15:40:42.995Z,100755.99
2019-02-24T15:43:12.284Z,100756.73
2019-02-24T15:45:43.925Z,100756.77
2019-02-24T15:48:14.783Z,100756.73
2019-02-24T15:50:46.955Z,100758.20
2019-02-24T15:53:18.306Z,100758.20
2019-02-24T15:55:50.995Z,100759.17
2019-02-24T15:58:20.268Z,100752.98
2019-02-24T16:00:49.314Z,100751.93
2019-02-24T16:03:21.618Z,100751.93
2019-02-24T16:05:52.380Z,100749.27
2019-02-24T16:08:21.583Z,100777.18
2019-02-24T16:10:51.969Z,100757.38
2019-02-24T16:13:25.304Z,100771.23
2019-02-24T16:15:54.650Z,100774.70
2019-02-24T16:18:25.865Z,100776.93
2019-02-24T16:20:54.949Z,100782.47
2019-02-24T16:23:24.406Z,100781.24
2019-02-24T16:25:54.016Z,100777.19
2019-02-24T16:28:24.622Z,100779.98
2019-02-24T16:31:03.478Z,100775.13
2019-02-24T16:33:32.635Z,100776.14
2019-02-24T16:36:02.096Z,100769.22
2019-02-24T16:38:31.290Z,100771.88
2019-02-24T16:41:00.423Z,100781.62
2019-02-24T16:43:29.480Z,100778.09
2019-02-24T16:45:58.494Z,100779.75
2019-02-24T16:48:27.566Z,100782.09
2019-02-24T16:50:56.702Z,100775.42
2019-02-24T16:53:25.886Z,100786.55
2019-02-24T16:55:55.067Z,100791.70
2019-02-24T16:58:24.184Z,100780.50
2019-02-24T17:00:53.316Z,100784.20
2019-02-24T17:03:22.709Z,100788.86
2019-02-24T17:05:51.839Z,100791.74
2019-02-24T17:08:21.234Z,100790.14
2019-02-24T17:10:50.312Z,100795.12
2019-02-24T17:13:19.359Z,100798.75
2019-02-24T17:15:49.306Z,100809.85
2019-02-24T17:18:19.718Z,100812.84
2019-02-24T17:20:49.084Z,100820.78
2019-02-24T17:23:20.277Z,100818.83
2019-02-24T17:25:49.388Z,100823.53
2019-02-24T17:28:18.615Z,100827.45
2019-02-24T17:30:47.829Z,100826.42
2019-02-24T17:33:17.285Z,100834.87
2019-02-24T17:35:47.845Z,100832.49
2019-02-24T17:38:16.991Z,100831.27
2019-02-24T17:40:46.112Z,100830.70
2019-02-24T17:43:15.129Z,100834.36
2019-02-24T17:45:51.290Z,100832.98
2019-02-24T17:48:20.346Z,100844.44
2019-02-24T17:50:51.629Z,100842.65
2019-02-24T17:53:20.808Z,100846.80
2019-02-24T17:55:55.030Z,100850.25
2019-02-24T17:58:24.204Z,100850.41
2019-02-24T18:00:59.847Z,100851.55
2019-02-24T18:03:39.054Z,100844.32
2019-02-24T18:06:02.359Z,100853.11
2019-02-24T18:08:31.709Z,100846.63
2019-02-24T18:11:00.782Z,100844.73
2019-02-24T18:13:29.925Z,100849.35
2019-02-24T18:15:59.243Z,100839.28
2019-02-24T18:18:32.994Z,100835.73
2019-02-24T18:21:02.174Z,100836.25
2019-02-24T18:23:31.269Z,100834.32
2019-02-24T18:26:00.364Z,100835.14
2019-02-24T18:28:29.506Z,100834.69
2019-02-24T18:30:58.779Z,100843.13
2019-02-24T18:33:27.804Z,100844.21
2019-02-24T18:35:57.030Z,100837.48
2019-02-24T18:38:27.977Z,100832.11
2019-02-24T18:40:56.811Z,100823.52
2019-02-24T18:43:25.890Z,100829.16
2019-02-24T18:45:55.404Z,100836.25
2019-02-24T18:48:24.533Z,100831.97
2019-02-24T18:50:53.744Z,100832.34
2019-02-24T18:53:24.945Z,100838.16
2019-02-24T18:55:54.065Z,100839.48
2019-02-24T18:58:23.238Z,100833.75
2019-02-24T19:00:52.392Z,100843.25
2019-02-24T19:03:21.467Z,100842.71
2019-02-24T19:05:50.686Z,100844.80
2019-02-24T19:08:19.824Z,100845.17
2019-02-24T19:10:48.975Z,100847.66
2019-02-24T19:13:18.113Z,100843.34
2019-02-24T19:15:47.217Z,100846.92
2019-02-24T19:18:16.375Z,100845.73
2019-02-24T19:20:45.641Z,100839.44
2019-02-24T19:23:14.984Z,100840.19
2019-02-24T19:25:44.184Z,100845.20
2019-02-24T19:28:13.334Z,100846.07
2019-02-24T19:30:43.478Z,100846.11
2019-02-24T19:33:12.752Z,100834.50
2019-02-24T19:35:41.882Z,100838.64
2019-02-24T19:38:11.004Z,100837.42
2019-02-24T19:40:40.289Z,100835.03
2019-02-24T19:43:09.490Z,100832.44
2019-02-24T19:45:38.626Z,100833.80
2019-02-24T19:48:08.264Z,100830.63
2019-02-24T19:50:37.581Z,100825.89
2019-02-24T19:53:06.767Z,100821.78
2019-02-24T19:55:36.011Z,100823.87
2019-02-24T19:58:05.305Z,100819.76
2019-02-24T20:00:34.503Z,100818.15
2019-02-24T20:03:03.804Z,100816.87
2019-02-24T20:05:33.158Z,100820.73
2019-02-24T20:08:02.383Z,100821.59
2019-02-24T20:10:31.692Z,100815.42
2019-02-24T20:13:00.869Z,100810.89
2019-02-24T20:15:30.018Z,100809.73
2019-02-24T20:17:59.086Z,100812.25
2019-02-24T20:20:28.178Z,100819.87
2019-02-24T20:22:57.426Z,100812.87
2019-02-24T20:25:26.622Z,100813.76
2019-02-24T20:27:55.738Z,100820.45
2019-02-24T20:30:27.320Z,100815.98
2019-02-24T20:32:57.030Z,100819.48
2019-02-24T20:35:27.102Z,100830.80
2019-02-24T20:37:56.175Z,100833.47
2019-02-24T20:40:25.269Z,100831.33
2019-02-24T20:42:54.389Z,100840.98
2019-02-24T20:45:30.370Z,100841.52
2019-02-24T20:47:59.422Z,100850.80
2019-02-24T20:50:28.647Z,100849.17
2019-02-24T20:52:57.821Z,100856.65
2019-02-24T20:55:26.967Z,100855.20
2019-02-24T20:57:56.343Z,100853.64
2019-02-24T21:00:31.138Z,100852.63
2019-02-24T21:03:01.506Z,100861.32
2019-02-24T21:05:31.355Z,100867.17
2019-02-24T21:08:00.761Z,100870.29
2019-02-24T21:10:32.422Z,100876.84
2019-02-24T21:13:04.724Z,100887.30
2019-02-24T21:15:40.188Z,100885.70
2019-02-24T21:18:40.352Z,100881.51
2019-02-24T21:21:29.636Z,100883.94
2019-02-24T21:23:58.751Z,100868.32
2019-02-24T21:26:27.944Z,100868.03
2019-02-24T21:28:57.058Z,100863.11
2019-02-24T21:31:26.235Z,100858.52
2019-02-24T21:33:55.317Z,100859.72
2019-02-24T21:36:24.518Z,100863.40
2019-02-24T21:38:53.626Z,100864.64
2019-02-24T21:41:22.774Z,100855.92
2019-02-24T21:44:07.136Z,100851.63
2019-02-24T21:46:36.274Z,100846.68
2019-02-24T21:49:05.402Z,100849.59
2019-02-24T21:51:38.119Z,100847.44
2019-02-24T21:54:07.263Z,100847.78
2019-02-24T21:56:36.360Z,100851.80
2019-02-24T21:59:05.534Z,100852.81
2019-02-24T22:01:34.579Z,100865.30
2019-02-24T22:04:03.703Z,100860.11
2019-02-24T22:06:32.840Z,100866.80
2019-02-24T22:09:01.930Z,100867.53
2019-02-24T22:11:40.109Z,100873.23
2019-02-24T22:14:09.244Z,100867.11
2019-02-24T22:16:38.339Z,100860.44
2019-02-24T22:19:07.449Z,100858.34
2019-02-24T22:21:36.678Z,100866.23
2019-02-24T22:24:05.781Z,100865.93
2019-02-24T22:26:34.869Z,100878.42
2019-02-24T22:29:04.016Z,100881.47
2019-02-24T22:31:33.105Z,100880.23
2019-02-24T22:34:02.252Z,100873.56
2019-02-24T22:36:34.281Z,100877.47
2019-02-24T22:39:03.524Z,100881.25
2019-02-24T22:41:32.649Z,100878.14
2019-02-24T22:44:01.788Z,100875.58
2019-02-24T22:46:30.914Z,100878.30
2019-02-24T22:49:00.031Z,100876.58
2019-02-24T22:51:29.141Z,100877.24
2019-02-24T22:53:58.288Z,100875.58
2019-02-24T22:56:27.397Z,100880.10
2019-02-24T22:58:56.498Z,100885.88
2019-02-24T23:01:29.739Z,100883.31
2019-02-24T23:04:10.172Z,100875.54
2019-02-24T23:06:39.307Z,100870.34
2019-02-24T23:09:12.665Z,100873.14
2019-02-24T23:11:41.766Z,100876.25
2019-02-24T23:14:10.898Z,100881.45
2019-02-24T23:16:40.021Z,100884.11
2019-02-24T23:19:18.130Z,100885.91
2019-02-24T23:21:47.245Z,100880.06
2019-02-24T23:24:18.810Z,100886.33
2019-02-24T23:26:47.958Z,100885.88
2019-02-24T23:29:17.064Z,100877.55
2019-02-24T23:31:46.558Z,100874.86
2019-02-24T23:34:15.708Z,100872.83
2019-02-24T23:36:44.829Z,100877.97
2019-02-24T23:39:16.483Z,100869.24
2019-02-24T23:41:46.057Z,100869.16
2019-02-24T23:44:15.182Z,100873.31
2019-02-24T23:46:47.161Z,100879.05
2019-02-24T23:49:16.155Z,100875.08
2019-02-24T23:51:45.245Z,100882.66
2019-02-24T23:54:14.359Z,100879.92
2019-02-24T23:56:55.683Z,100873.99
2019-02-24T23:59:28.132Z,100867.81
